Time;durP1;ratioP1;P1;durP2;ratioP2;P2;SDS_P1;SDS_P2;PMS_P1;PMS_P2;Temp;Humidity;BMP_temperature;BMP_pressure;BME280_temperature;BME280_humidity;BME280_pressure;Samples;Min_cycle;Max_cycle;Signal;HPM_P1;HPM_P2
2022/07/20 00:00:39;;;;;;;4.80;3.10;;;;;;;13.25;77.46;98692.00;5033799;28;20046;-68
2022/07/20 00:03:11;;;;;;;3.95;3.05;;;;;;;13.17;77.26;98694.16;5034407;28;20049;-66
2022/07/20 00:05:38;;;;;;;5.13;3.30;;;;;;;13.19;77.41;98692.03;5034098;28;20411;-66
2022/07/20 00:08:04;;;;;;;4.13;2.75;;;;;;;13.16;77.19;98686.47;5033649;28;20200;-65
2022/07/20 00:13:16;;;;;;;4.35;2.83;;;;;;;13.12;76.63;98686.22;5033597;28;20061;-64
2022/07/20 00:15:42;;;;;;;6.85;4.32;;;;;;;13.10;76.92;98682.22;5053176;28;20649;-65
2022/07/20 00:18:08;;;;;;;4.97;2.90;;;;;;;13.07;76.63;98674.78;5051886;28;20163;-64
2022/07/20 00:20:35;;;;;;;6.32;2.85;;;;;;;13.07;76.74;98677.44;5053320;28;20032;-67
2022/07/20 00:23:01;;;;;;;3.92;3.00;;;;;;;13.03;76.64;98668.38;5052738;28;20501;-65
2022/07/20 00:25:27;;;;;;;5.57;3.03;;;;;;;13.01;76.65;98676.66;5051155;28;20182;-64
2022/07/20 00:27:53;;;;;;;4.25;2.70;;;;;;;12.99;76.49;98673.47;5051396;28;20084;-65
2022/07/20 00:30:18;;;;;;;6.32;3.60;;;;;;;12.94;76.09;98668.16;5053097;28;20498;-66
2022/07/20 00:32:44;;;;;;;5.07;3.10;;;;;;;12.92;76.66;98673.75;5052466;28;20039;-66
2022/07/20 00:35:12;;;;;;;5.53;2.70;;;;;;;12.90;76.56;98667.09;5019693;28;20071;-66
2022/07/20 00:37:39;;;;;;;4.50;3.00;;;;;;;12.87;76.60;98668.44;5031573;28;20041;-65
2022/07/20 00:40:05;;;;;;;6.03;3.00;;;;;;;12.86;76.29;98664.19;5032737;28;20521;-65
2022/07/20 00:42:33;;;;;;;4.63;2.55;;;;;;;12.87;76.14;98660.44;5032615;28;20045;-65
2022/07/20 00:44:59;;;;;;;4.32;2.88;;;;;;;12.85;76.39;98651.97;5043937;28;20053;-65
2022/07/20 00:47:25;;;;;;;3.92;2.45;;;;;;;12.84;76.29;98654.88;5051135;28;20490;-65
2022/07/20 00:49:51;;;;;;;4.15;2.60;;;;;;;12.82;76.35;98649.81;5052508;28;20048;-64
2022/07/20 00:52:16;;;;;;;2.83;2.60;;;;;;;12.79;76.25;98644.25;5052701;28;20080;-64
2022/07/20 00:54:44;;;;;;;3.67;2.85;;;;;;;12.77;76.50;98644.53;5031771;28;20048;-66
2022/07/20 00:57:10;;;;;;;3.42;2.88;;;;;;;12.75;76.64;98645.88;5031052;28;20129;-66
2022/07/20 00:59:36;;;;;;;4.43;2.80;;;;;;;12.72;76.83;98645.31;5032261;28;20488;-66
2022/07/20 01:02:01;;;;;;;3.35;2.70;;;;;;;12.73;76.71;98638.97;5031064;28;20124;-66
2022/07/20 01:04:27;;;;;;;5.95;2.70;;;;;;;12.69;77.03;98632.56;5031185;28;20430;-66
2022/07/20 01:06:53;;;;;;;3.58;2.70;;;;;;;12.70;76.74;98634.16;5032483;28;20053;-64
2022/07/20 01:09:20;;;;;;;3.55;2.60;;;;;;;12.67;77.19;98624.06;5032342;28;20442;-65
2022/07/20 01:11:46;;;;;;;3.78;2.80;;;;;;;12.67;76.94;98618.75;5037159;28;20037;-65
2022/07/20 01:14:11;;;;;;;3.33;2.78;;;;;;;12.64;77.20;98610.50;5051950;28;20521;-66
2022/07/20 01:16:38;;;;;;;3.70;2.70;;;;;;;12.74;76.79;98605.19;5050453;28;20032;-67
2022/07/20 01:19:05;;;;;;;3.85;3.03;;;;;;;12.85;76.46;98598.78;5043064;28;20061;-68
2022/07/20 01:21:32;;;;;;;3.40;2.60;;;;;;;13.02;75.58;98598.44;5031989;28;20069;-65
2022/07/20 01:23:57;;;;;;;2.78;2.55;;;;;;;13.26;74.66;98613.78;5032208;28;20379;-67
2022/07/20 01:26:23;;;;;;;5.18;2.72;;;;;;;13.55;73.90;98603.25;5014637;28;20041;-66
2022/07/20 01:28:49;;;;;;;3.40;2.60;;;;;;;13.77;72.69;98601.00;5032281;28;20081;-66
2022/07/20 01:31:15;;;;;;;3.50;2.80;;;;;;;13.83;71.88;98599.09;5030571;28;20069;-67
2022/07/20 01:33:41;;;;;;;3.08;2.60;;;;;;;14.01;71.39;98602.94;5032191;28;20051;-67
2022/07/20 01:36:07;;;;;;;4.13;2.50;;;;;;;14.29;70.65;98586.19;5031902;28;20116;-65
2022/07/20 01:38:33;;;;;;;3.28;2.30;;;;;;;14.62;69.28;98581.09;5030524;28;20058;-67
2022/07/20 01:40:59;;;;;;;5.75;2.83;;;;;;;14.98;67.74;98588.69;5031588;28;20042;-66
2022/07/20 01:43:24;;;;;;;2.28;2.08;;;;;;;15.34;66.42;98590.88;5014403;28;20049;-66
2022/07/20 01:45:50;;;;;;;4.28;2.20;;;;;;;15.69;65.51;98589.63;5013840;28;20556;-66
2022/07/20 01:48:16;;;;;;;3.35;2.10;;;;;;;15.98;63.84;98588.66;5031371;28;20132;-65
2022/07/20 01:50:41;;;;;;;4.15;2.08;;;;;;;16.15;63.48;98582.72;5031672;28;20054;-67
2022/07/20 01:53:07;;;;;;;2.75;2.30;;;;;;;15.94;63.68;98583.06;5031487;28;20045;-65
2022/07/20 01:55:34;;;;;;;5.13;2.22;;;;;;;15.86;63.93;98576.53;5044928;28;20136;-64
2022/07/20 01:57:59;;;;;;;5.57;2.83;;;;;;;15.95;63.91;98584.66;5051483;28;20124;-64
2022/07/20 02:00:26;;;;;;;3.35;2.33;;;;;;;15.82;63.97;98578.16;5050080;28;20128;-64
2022/07/20 02:02:52;;;;;;;3.17;2.20;;;;;;;15.54;64.62;98581.81;5033321;28;20049;-64
2022/07/20 02:05:18;;;;;;;2.70;2.33;;;;;;;15.29;65.90;98569.59;5051278;28;20043;-64
2022/07/20 02:07:44;;;;;;;3.63;2.40;;;;;;;15.45;65.45;98565.63;5049991;28;20048;-66
2022/07/20 02:10:12;;;;;;;3.35;2.30;;;;;;;15.74;64.69;98568.16;5051078;28;20036;-65
2022/07/20 02:12:38;;;;;;;2.90;2.20;;;;;;;15.79;64.24;98560.06;5051067;28;20060;-65
2022/07/20 02:15:06;;;;;;;3.78;2.20;;;;;;;15.82;64.12;98556.00;5050052;28;20036;-65
2022/07/20 02:17:32;;;;;;;2.55;2.10;;;;;;;15.81;64.19;98557.09;5050756;28;20049;-64
2022/07/20 02:19:58;;;;;;;2.65;2.10;;;;;;;15.87;64.15;98558.59;5051243;28;20044;-65
2022/07/20 02:22:23;;;;;;;2.22;2.00;;;;;;;15.92;64.35;98549.72;5050664;28;20056;-65
2022/07/20 02:24:49;;;;;;;3.28;2.00;;;;;;;16.04;63.79;98558.06;5033246;28;20048;-66
2022/07/20 02:27:15;;;;;;;3.40;2.10;;;;;;;16.40;62.62;98544.84;5050931;28;20512;-64
2022/07/20 02:29:40;;;;;;;3.95;2.08;;;;;;;16.72;62.11;98543.97;5051199;28;20120;-66
2022/07/20 02:32:06;;;;;;;2.92;2.20;;;;;;;16.95;61.36;98530.72;5050773;28;20182;-65
2022/07/20 02:34:32;;;;;;;5.70;2.45;;;;;;;16.80;61.48;98523.78;5050387;28;20425;-66
2022/07/20 02:36:57;;;;;;;2.15;1.92;;;;;;;16.57;61.89;98518.31;5050979;28;20045;-64
2022/07/20 02:39:23;;;;;;;4.55;2.40;;;;;;;16.25;62.96;98513.06;5050451;28;20106;-65
2022/07/20 02:41:49;;;;;;;5.55;2.30;;;;;;;16.21;63.38;98523.53;5050708;28;20041;-64
2022/07/20 02:44:14;;;;;;;2.67;2.20;;;;;;;16.15;63.65;98510.53;5049361;28;20064;-65
2022/07/20 02:46:40;;;;;;;2.47;1.92;;;;;;;16.19;63.46;98508.88;5051029;28;20033;-65
2022/07/20 02:49:06;;;;;;;2.50;2.30;;;;;;;16.26;63.34;98506.59;5050936;28;20045;-65
2022/07/20 02:51:32;;;;;;;4.55;2.30;;;;;;;16.32;63.33;98498.22;5049498;28;20481;-66
2022/07/20 02:53:58;;;;;;;5.43;2.30;;;;;;;16.55;62.81;98493.72;5050481;28;20100;-65
2022/07/20 02:56:24;;;;;;;2.40;2.15;;;;;;;16.75;62.29;98494.41;5052238;28;20136;-67
2022/07/20 02:58:49;;;;;;;6.63;2.30;;;;;;;17.77;59.84;98486.75;5054618;28;20402;-65
2022/07/20 03:01:15;;;;;;;2.97;1.90;;;;;;;18.93;56.44;98480.44;5054798;28;20041;-66
2022/07/20 03:03:42;;;;;;;2.58;2.08;;;;;;;19.85;53.38;98481.03;5053551;28;20076;-66
2022/07/20 03:06:08;;;;;;;2.08;1.80;;;;;;;20.51;51.39;98490.63;5054551;28;20545;-66
2022/07/20 03:08:34;;;;;;;3.50;2.40;;;;;;;21.16;50.31;98494.66;5054919;28;20166;-66
2022/07/20 03:10:59;;;;;;;3.15;1.77;;;;;;;21.69;48.85;98497.72;5054763;28;20044;-68
2022/07/20 03:13:25;;;;;;;5.22;2.00;;;;;;;21.87;48.02;98495.63;5053385;28;20407;-66
2022/07/20 03:15:51;;;;;;;2.42;1.80;;;;;;;21.96;47.76;98494.41;5054640;28;20491;-66
2022/07/20 03:18:17;;;;;;;4.80;2.17;;;;;;;22.08;47.03;98490.94;5054294;28;20122;-66
2022/07/20 03:20:42;;;;;;;2.67;1.85;;;;;;;21.84;47.60;98496.31;5054598;28;20426;-66
2022/07/20 03:23:08;;;;;;;1.90;1.80;;;;;;;22.02;47.39;98495.00;5054046;28;20059;-66
2022/07/20 03:25:34;;;;;;;3.60;1.80;;;;;;;22.34;46.59;98487.19;5054176;28;20090;-67
2022/07/20 03:28:00;;;;;;;2.85;1.67;;;;;;;22.30;47.13;98495.19;5054274;28;20049;-68
2022/07/20 03:30:26;;;;;;;4.35;2.10;;;;;;;22.04;47.18;98490.06;5053030;28;20037;-68
2022/07/20 03:32:53;;;;;;;2.72;1.90;;;;;;;21.50;48.63;98480.13;5053444;28;20049;-67
2022/07/20 03:35:19;;;;;;;2.72;1.90;;;;;;;21.53;49.04;98487.56;5054028;28;20454;-65
2022/07/20 03:37:45;;;;;;;3.30;2.00;;;;;;;21.29;49.25;98484.72;5036233;28;20076;-67
2022/07/20 03:40:13;;;;;;;2.33;2.10;;;;;;;20.83;50.32;98479.19;5054156;28;20072;-67
2022/07/20 03:42:38;;;;;;;2.63;1.67;;;;;;;20.46;51.46;98485.41;5053888;28;20049;-66
2022/07/20 03:45:05;;;;;;;2.15;1.92;;;;;;;20.14;52.33;98483.00;5052571;28;20047;-65
2022/07/20 03:47:31;;;;;;;4.63;2.13;;;;;;;19.83;53.18;98472.50;5053854;28;20115;-67
2022/07/20 03:49:56;;;;;;;2.67;2.05;;;;;;;19.63;54.05;98478.53;5053664;28;20152;-67
2022/07/20 03:52:23;;;;;;;2.42;2.10;;;;;;;19.33;55.17;98474.94;5053476;28;20064;-64
2022/07/20 03:54:48;;;;;;;3.55;2.08;;;;;;;19.09;55.65;98473.53;5052384;28;20094;-66
2022/07/20 03:57:14;;;;;;;3.78;2.00;;;;;;;18.94;56.27;98468.59;5053700;28;20045;-64
2022/07/20 03:59:41;;;;;;;2.85;2.17;;;;;;;18.70;57.07;98469.78;5053543;28;20041;-65
2022/07/20 04:02:07;;;;;;;3.58;2.30;;;;;;;18.57;57.67;98457.31;5052949;28;20049;-65
2022/07/20 04:04:33;;;;;;;4.70;2.13;;;;;;;18.45;58.08;98459.81;5053445;28;20079;-64
2022/07/20 04:06:58;;;;;;;3.58;2.17;;;;;;;18.36;58.53;98452.50;5052737;28;20351;-64
2022/07/20 04:12:11;;;;;;;2.72;2.30;;;;;;;18.09;59.64;98437.44;5035152;28;20095;-64
2022/07/20 04:14:37;;;;;;;4.57;2.33;;;;;;;17.97;60.27;98441.78;5033444;28;20098;-64
2022/07/20 04:17:03;;;;;;;4.68;2.28;;;;;;;17.82;60.66;98440.28;5033473;28;20046;-64
2022/07/20 04:19:29;;;;;;;3.17;2.00;;;;;;;17.72;60.88;98433.28;5033249;28;20466;-66
2022/07/20 04:22:01;;;;;;;3.80;2.38;;;;;;;17.48;62.03;98438.97;5033472;28;20056;-64
2022/07/20 04:24:28;;;;;;;2.55;2.35;;;;;;;17.32;62.67;98430.50;5032109;28;20052;-65
2022/07/20 04:26:53;;;;;;;2.67;2.28;;;;;;;17.26;63.11;98426.38;5031950;28;20041;-65
2022/07/20 04:29:21;;;;;;;3.30;2.35;;;;;;;17.13;63.49;98425.34;5033372;28;20049;-66
2022/07/20 04:31:46;;;;;;;4.05;2.40;;;;;;;17.18;63.85;98427.13;5033248;28;20045;-65
2022/07/20 04:34:12;;;;;;;3.85;2.67;;;;;;;17.18;64.08;98422.56;5032860;28;20099;-64
2022/07/20 04:36:38;;;;;;;2.40;2.15;;;;;;;17.15;64.33;98422.38;5033056;28;20128;-64
2022/07/20 04:39:04;;;;;;;3.28;2.45;;;;;;;17.17;64.54;98420.16;5031754;28;20498;-64
2022/07/20 04:41:29;;;;;;;3.95;2.25;;;;;;;17.18;64.71;98403.81;5032761;28;20423;-65
2022/07/20 04:43:55;;;;;;;3.38;2.40;;;;;;;17.32;64.42;98417.13;5032488;28;20103;-63
2022/07/20 04:46:21;;;;;;;2.85;2.63;;;;;;;17.49;64.03;98417.22;5031442;28;20091;-64
2022/07/20 04:48:46;;;;;;;2.50;2.30;;;;;;;17.64;63.82;98423.31;5033024;28;20045;-64
2022/07/20 04:51:12;;;;;;;3.80;2.45;;;;;;;17.75;63.46;98419.25;5031352;28;20513;-65
2022/07/20 04:53:38;;;;;;;3.15;2.42;;;;;;;17.95;63.14;98414.50;5030965;28;20049;-66
2022/07/20 04:56:03;;;;;;;2.45;2.08;;;;;;;18.10;62.71;98416.75;5032580;28;20045;-67
2022/07/20 04:58:32;;;;;;;3.50;2.30;;;;;;;18.16;62.37;98400.22;5048534;28;20099;-65
2022/07/20 05:00:58;;;;;;;3.65;2.50;;;;;;;18.36;62.06;98403.44;5048126;28;20041;-65
2022/07/20 05:03:23;;;;;;;4.00;2.45;;;;;;;18.48;61.61;98397.47;5046882;28;20139;-66
2022/07/20 05:05:49;;;;;;;2.80;2.50;;;;;;;18.57;61.54;98392.88;5045846;28;20135;-66
2022/07/20 05:08:15;;;;;;;4.57;2.47;;;;;;;18.63;61.63;98388.94;5049352;28;20053;-64
2022/07/20 05:10:41;;;;;;;3.38;2.10;;;;;;;18.67;61.26;98389.88;5040552;28;20045;-64
2022/07/20 05:13:06;;;;;;;7.00;2.58;;;;;;;18.61;61.76;98388.47;5030225;28;20122;-65
2022/07/20 05:15:32;;;;;;;4.20;2.20;;;;;;;18.37;62.27;98380.84;5036419;28;20036;-66
2022/07/20 05:17:58;;;;;;;4.43;2.67;;;;;;;18.39;62.24;98379.44;5056994;28;20487;-65
2022/07/20 05:20:26;;;;;;;5.20;2.60;;;;;;;18.45;62.49;98374.72;5050802;28;20092;-63
2022/07/20 05:22:52;;;;;;;4.53;2.70;;;;;;;18.59;61.99;98375.38;5000136;28;20063;-66
2022/07/20 05:25:18;;;;;;;4.30;2.38;;;;;;;18.54;62.46;98372.06;5047153;28;20415;-64
2022/07/20 05:27:44;;;;;;;2.78;2.40;;;;;;;18.34;63.04;98360.81;5045461;28;20098;-65
2022/07/20 05:30:10;;;;;;;5.22;2.78;;;;;;;18.21;63.46;98358.28;5050216;28;20036;-65
2022/07/20 05:32:36;;;;;;;4.25;2.60;;;;;;;18.25;63.46;98356.53;5047717;28;20144;-65
2022/07/20 05:35:01;;;;;;;3.60;2.60;;;;;;;18.12;64.04;98356.34;5037307;28;20144;-66
2022/07/20 05:37:29;;;;;;;3.45;2.45;;;;;;;18.09;64.38;98350.84;5043907;28;20482;-64
2022/07/20 05:39:55;;;;;;;6.05;2.80;;;;;;;18.22;63.94;98349.91;5048682;28;20076;-65
2022/07/20 05:42:20;;;;;;;4.28;2.65;;;;;;;18.32;64.08;98341.56;5032041;28;20124;-65
2022/07/20 05:44:46;;;;;;;5.90;3.80;;;;;;;18.50;63.33;98336.19;5049517;28;20079;-64
2022/07/20 05:47:12;;;;;;;5.80;2.55;;;;;;;18.55;63.10;98328.78;5036790;28;20037;-65
2022/07/20 05:49:37;;;;;;;6.05;3.00;;;;;;;18.59;63.14;98323.59;5029623;28;20091;-66
2022/07/20 05:52:04;;;;;;;3.95;3.20;;;;;;;18.43;63.72;98320.56;5030726;28;20068;-64
2022/07/20 05:54:30;;;;;;;4.45;3.20;;;;;;;18.47;63.52;98310.81;5039226;28;20111;-65
2022/07/20 05:56:56;;;;;;;4.32;3.20;;;;;;;18.49;63.39;98307.78;5029721;28;20076;-64
2022/07/20 05:59:21;;;;;;;5.07;2.88;;;;;;;18.50;63.25;98302.13;5028490;28;20415;-65
2022/07/20 06:01:48;;;;;;;4.68;3.20;;;;;;;18.44;63.62;98303.38;5043859;28;20047;-64
2022/07/20 06:04:14;;;;;;;3.80;2.72;;;;;;;18.39;64.25;98303.53;5049719;28;20048;-64
2022/07/20 06:06:40;;;;;;;5.63;3.05;;;;;;;18.34;64.41;98304.47;5041458;28;20490;-65
2022/07/20 06:09:06;;;;;;;5.65;3.50;;;;;;;18.21;64.80;98297.38;5028713;28;20075;-65
2022/07/20 06:11:33;;;;;;;4.63;3.20;;;;;;;18.53;63.88;98301.50;5029661;28;20045;-66
2022/07/20 06:13:58;;;;;;;5.50;3.92;;;;;;;18.76;63.29;98309.38;5013255;28;20061;-65
2022/07/20 06:16:24;;;;;;;5.68;3.60;;;;;;;19.00;62.68;98298.13;5030762;28;20040;-64
2022/07/20 06:18:50;;;;;;;5.38;3.40;;;;;;;19.28;61.48;98302.03;5028611;28;20045;-64
2022/07/20 06:21:16;;;;;;;5.78;3.28;;;;;;;19.42;61.02;98303.72;5040975;28;20086;-64
2022/07/20 06:23:42;;;;;;;4.10;3.03;;;;;;;19.29;61.31;98300.13;5049154;28;20044;-63
2022/07/20 06:26:08;;;;;;;5.80;3.20;;;;;;;19.14;62.44;98288.00;5041675;28;20037;-63
2022/07/20 06:28:34;;;;;;;5.72;3.90;;;;;;;19.03;62.71;98292.94;5027779;28;20072;-64
2022/07/20 06:31:00;;;;;;;3.42;2.60;;;;;;;18.99;62.98;98297.34;5031573;28;20045;-65
2022/07/20 06:33:25;;;;;;;3.47;2.88;;;;;;;18.87;63.40;98294.53;5032999;28;20045;-63
2022/07/20 06:35:51;;;;;;;5.03;3.00;;;;;;;18.78;63.26;98281.13;5031476;28;20088;-62
2022/07/20 06:38:17;;;;;;;4.10;3.00;;;;;;;18.82;63.49;98287.44;5033004;28;20080;-62
2022/07/20 06:40:43;;;;;;;5.55;3.72;;;;;;;18.79;63.25;98277.31;5045191;28;20072;-64
2022/07/20 06:43:09;;;;;;;4.47;2.92;;;;;;;18.73;63.55;98288.53;5053637;28;20067;-64
2022/07/20 06:45:34;;;;;;;4.00;2.90;;;;;;;18.70;63.44;98287.25;5052512;28;20091;-65
2022/07/20 06:48:00;;;;;;;2.85;2.60;;;;;;;18.83;63.39;98272.91;5049581;28;20485;-63
2022/07/20 06:50:26;;;;;;;3.83;2.92;;;;;;;19.01;62.82;98272.88;5033213;28;20041;-62
2022/07/20 06:52:52;;;;;;;2.92;2.55;;;;;;;19.27;61.89;98270.91;5036285;28;20083;-63
2022/07/20 06:55:17;;;;;;;2.92;2.72;;;;;;;19.54;61.28;98258.16;5036855;28;20533;-65
2022/07/20 06:57:44;;;;;;;6.43;2.95;;;;;;;19.64;61.07;98262.34;5034177;28;20439;-64
2022/07/20 07:00:11;;;;;;;4.93;2.85;;;;;;;19.82;60.49;98255.00;5036355;28;20048;-65
2022/07/20 07:02:37;;;;;;;4.82;2.92;;;;;;;19.98;60.11;98247.16;5052510;28;20048;-64
2022/07/20 07:05:05;;;;;;;3.90;2.53;;;;;;;20.16;59.93;98233.25;5049198;28;20049;-65
2022/07/20 07:07:31;;;;;;;5.75;2.88;;;;;;;20.15;59.72;98241.66;5068249;28;20041;-65
2022/07/20 07:09:56;;;;;;;4.53;2.60;;;;;;;20.26;59.84;98231.28;5074250;28;20044;-65
2022/07/20 07:12:22;;;;;;;2.97;2.58;;;;;;;20.29;59.11;98230.63;5066140;28;20056;-63
2022/07/20 07:14:48;;;;;;;4.07;2.60;;;;;;;20.27;59.40;98227.50;5071079;28;20476;-65
2022/07/20 07:17:14;;;;;;;2.63;2.33;;;;;;;20.33;59.41;98226.97;5070068;28;20438;-64
2022/07/20 07:19:40;;;;;;;4.50;3.30;;;;;;;20.58;58.42;98224.38;5048220;28;20175;-64
2022/07/20 07:22:06;;;;;;;2.20;2.00;;;;;;;20.72;57.73;98219.50;5029069;28;20136;-63
2022/07/20 07:24:32;;;;;;;2.20;2.00;;;;;;;20.83;57.21;98212.56;5030933;28;20041;-64
2022/07/20 07:26:58;;;;;;;3.65;1.88;;;;;;;20.80;57.02;98213.22;5027956;28;20407;-64
2022/07/20 07:29:24;;;;;;;1.77;1.67;;;;;;;20.68;56.86;98215.09;5029478;28;20052;-63
2022/07/20 07:31:50;;;;;;;1.77;1.65;;;;;;;20.76;56.06;98216.91;5030311;28;20494;-64
2022/07/20 07:34:16;;;;;;;1.80;1.67;;;;;;;20.78;56.38;98206.59;5029765;28;20048;-63
2022/07/20 07:36:42;;;;;;;1.95;1.70;;;;;;;20.56;56.76;98203.19;5030960;28;20045;-63
2022/07/20 07:39:08;;;;;;;2.10;1.63;;;;;;;20.59;56.59;98197.13;5030482;28;20044;-65
2022/07/20 07:41:34;;;;;;;2.58;1.60;;;;;;;20.79;55.81;98203.56;5025133;28;20050;-65
2022/07/20 07:44:00;;;;;;;2.58;1.80;;;;;;;20.68;56.09;98202.44;5044956;28;20064;-62
2022/07/20 07:46:25;;;;;;;5.80;1.88;;;;;;;20.69;56.21;98197.84;5047289;28;20037;-65
2022/07/20 07:48:51;;;;;;;1.58;1.48;;;;;;;20.80;55.33;98190.91;5037562;28;20037;-63
2022/07/20 07:51:17;;;;;;;2.72;1.50;;;;;;;21.12;54.73;98188.47;5038624;28;20497;-65
2022/07/20 07:53:42;;;;;;;2.78;1.10;;;;;;;21.30;53.90;98185.22;5028311;28;20092;-65
2022/07/20 07:56:08;;;;;;;2.10;1.27;;;;;;;21.10;53.59;98197.66;5029154;28;20069;-65
2022/07/20 07:58:34;;;;;;;2.42;1.42;;;;;;;21.16;53.63;98192.84;5035545;28;20053;-66
2022/07/20 08:00:59;;;;;;;1.35;1.25;;;;;;;21.14;53.18;98189.69;5050850;28;20049;-66
2022/07/20 08:03:25;;;;;;;1.80;1.33;;;;;;;21.31;53.18;98191.41;5050383;28;20045;-66
2022/07/20 08:05:51;;;;;;;1.40;1.30;;;;;;;21.57;52.92;98195.69;5034155;28;20524;-65
2022/07/20 08:08:16;;;;;;;1.40;1.30;;;;;;;21.75;52.41;98184.28;5029661;28;20049;-65
2022/07/20 08:10:43;;;;;;;2.42;1.60;;;;;;;21.96;51.88;98178.72;5031382;28;20090;-68
2022/07/20 08:13:09;;;;;;;1.33;1.10;;;;;;;21.93;50.38;98170.53;5029881;28;20419;-65
2022/07/20 08:15:36;;;;;;;4.80;1.35;;;;;;;21.65;51.59;98170.47;5032288;28;20037;-66
2022/07/20 08:18:03;;;;;;;2.55;1.38;;;;;;;21.59;51.01;98171.84;5040731;28;20101;-66
2022/07/20 08:20:28;;;;;;;1.55;1.20;;;;;;;21.51;50.98;98168.16;5069254;28;20089;-69
2022/07/20 08:22:55;;;;;;;1.20;1.10;;;;;;;21.30;50.56;98160.97;5049540;28;20179;-68
2022/07/20 08:25:21;;;;;;;1.70;1.05;;;;;;;21.43;50.01;98161.75;5049542;28;20040;-69
2022/07/20 08:27:47;;;;;;;3.10;1.50;;;;;;;21.57;50.13;98161.41;5032117;28;20136;-66
2022/07/20 08:30:14;;;;;;;1.73;1.17;;;;;;;21.67;49.76;98157.47;5011503;28;20451;-65
2022/07/20 08:32:40;;;;;;;3.55;1.40;;;;;;;21.60;49.54;98152.66;5012930;28;20045;-65
2022/07/20 08:35:06;;;;;;;2.00;1.20;;;;;;;21.36;50.44;98145.38;5029714;28;20087;-66
2022/07/20 08:37:32;;;;;;;2.60;1.50;;;;;;;21.51;50.50;98155.47;5032345;28;20395;-65
2022/07/20 08:39:57;;;;;;;4.15;1.35;;;;;;;21.52;50.17;98157.03;5031755;28;20037;-66
2022/07/20 08:42:23;;;;;;;1.13;1.10;;;;;;;21.57;50.20;98157.94;5041910;28;20449;-66
2022/07/20 08:44:49;;;;;;;1.05;1.02;;;;;;;21.75;49.49;98157.31;5052294;28;20510;-65
2022/07/20 08:47:16;;;;;;;1.88;1.10;;;;;;;21.86;48.79;98154.94;5047389;28;20140;-65
2022/07/20 08:49:46;;;;;;;3.25;1.20;;;;;;;22.02;49.22;98157.69;5049902;28;20419;-63
2022/07/20 08:52:12;;;;;;;1.23;1.10;;;;;;;22.26;48.18;98156.06;5049585;28;20128;-65
2022/07/20 08:54:38;;;;;;;2.22;1.10;;;;;;;22.31;47.85;98164.69;5049472;28;20633;-66
2022/07/20 08:57:16;;;;;;;3.95;1.55;;;;;;;22.44;46.84;98163.53;5049939;28;20041;-64
2022/07/20 08:59:46;;;;;;;1.73;1.20;;;;;;;22.55;46.54;98152.97;5050796;28;20037;-66
2022/07/20 09:02:11;;;;;;;;;;;;;;;22.45;46.33;98145.41;5050374;28;20176;-64
2022/07/20 09:04:57;;;;;;;3.53;1.40;;;;;;;22.41;46.80;98158.00;5046646;28;20035;-64
2022/07/20 09:07:43;;;;;;;3.47;1.40;;;;;;;22.48;46.79;98155.50;5049129;28;20056;-67
2022/07/20 09:10:16;;;;;;;1.70;1.40;;;;;;;22.52;47.64;98152.91;5050923;28;20041;-65
2022/07/20 09:12:55;;;;;;;5.45;1.30;;;;;;;22.36;47.28;98159.06;5048355;28;20096;-66
2022/07/20 09:15:28;;;;;;;4.18;1.75;;;;;;;22.09;48.16;98163.31;5047173;28;20048;-66
2022/07/20 09:18:06;;;;;;;19.20;1.50;;;;;;;21.27;46.25;98160.88;5047207;28;20549;-65
2022/07/20 09:20:34;;;;;;;3.08;1.15;;;;;;;20.64;46.00;98169.19;5050620;28;20063;-65
2022/07/20 09:23:02;;;;;;;3.83;1.15;;;;;;;20.24;46.92;98167.06;5049288;28;20045;-65
2022/07/20 09:25:28;;;;;;;2.50;1.30;;;;;;;19.85;47.89;98165.63;5048146;28;20422;-63
2022/07/20 09:27:54;;;;;;;1.10;0.98;;;;;;;19.43;48.48;98166.34;5048175;28;20053;-63
2022/07/20 09:30:19;;;;;;;3.70;1.45;;;;;;;19.21;49.71;98172.78;5048806;28;20514;-66
2022/07/20 09:32:50;;;;;;;2.10;1.17;;;;;;;18.93;50.03;98175.13;5047151;28;20122;-64
2022/07/20 09:35:16;;;;;;;5.68;1.20;;;;;;;18.66;51.17;98176.28;5048466;28;20028;-64
2022/07/20 09:37:42;;;;;;;1.65;0.98;;;;;;;18.59;51.99;98179.47;5049334;28;20074;-64
2022/07/20 09:40:08;;;;;;;1.00;0.90;;;;;;;18.72;52.38;98174.22;5048835;28;20570;-66
2022/07/20 09:42:38;;;;;;;1.70;0.90;;;;;;;18.71;53.47;98178.00;5049659;28;20048;-64
2022/07/20 09:45:22;;;;;;;;;;;;;;;18.68;54.46;98170.56;5049449;28;20144;-65
2022/07/20 09:48:08;;;;;;;1.38;0.93;;;;;;;18.70;54.21;98163.00;5046527;28;19925;-63
2022/07/20 09:50:44;;;;;;;4.22;0.77;;;;;;;18.61;55.01;98161.13;5048651;28;20045;-65
2022/07/20 09:53:11;;;;;;;1.08;0.75;;;;;;;18.64;54.88;98153.53;5045254;28;20044;-66
2022/07/20 09:55:38;;;;;;;2.45;0.80;;;;;;;18.81;54.77;98146.25;5048251;28;20087;-65
2022/07/20 09:58:17;;;;;;;0.70;0.70;;;;;;;18.89;54.56;98141.19;5049507;28;20041;-65
2022/07/20 10:00:45;;;;;;;1.05;0.80;;;;;;;19.15;54.60;98141.84;5024110;28;20212;-66
2022/07/20 10:03:12;;;;;;;1.55;1.35;;;;;;;19.40;54.01;98133.97;5029339;28;20052;-63
2022/07/20 10:05:38;;;;;;;0.88;0.88;;;;;;;19.79;52.76;98124.69;5028341;28;20069;-66
2022/07/20 10:08:06;;;;;;;2.95;1.17;;;;;;;19.93;52.83;98135.97;5026497;28;20132;-65
2022/07/20 10:10:32;;;;;;;4.22;1.20;;;;;;;20.03;53.63;98124.03;5029095;28;20044;-65
2022/07/20 10:12:59;;;;;;;2.42;1.23;;;;;;;20.36;52.82;98115.19;5040919;28;20057;-65
2022/07/20 10:15:52;;;;;;;1.25;1.10;;;;;;;20.42;51.56;98105.78;5027566;28;20487;-64
2022/07/20 10:18:19;;;;;;;2.17;0.93;;;;;;;20.40;51.14;98114.16;5026361;28;20176;-64
2022/07/20 10:20:45;;;;;;;1.38;0.93;;;;;;;20.30;50.70;98108.44;5028884;28;20047;-67
2022/07/20 10:23:16;;;;;;;0.80;0.80;;;;;;;20.32;50.47;98100.78;5027030;28;20045;-65
2022/07/20 10:25:43;;;;;;;1.00;1.00;;;;;;;20.44;51.01;98092.75;5029028;28;20538;-67
2022/07/20 10:28:48;;;;;;;1.88;1.20;;;;;;;20.61;50.47;98083.72;5049003;28;20051;-64
2022/07/20 10:31:17;;;;;;;1.30;0.80;;;;;;;20.84;49.04;98081.38;5038894;28;20106;-66
2022/07/20 10:33:43;;;;;;;0.90;0.80;;;;;;;20.76;49.67;98084.97;5029507;28;20037;-66
2022/07/20 10:38:55;;;;;;;1.08;1.00;;;;;;;20.73;49.09;98082.94;5030620;28;20053;-66
2022/07/20 10:41:33;;;;;;;1.00;0.88;;;;;;;20.64;49.33;98088.44;5038914;28;20132;-65
2022/07/20 10:44:20;;;;;;;1.90;1.15;;;;;;;20.63;49.23;98074.19;5012673;28;20049;-66
2022/07/20 10:46:47;;;;;;;0.70;0.63;;;;;;;20.47;49.00;98081.34;5028819;28;20045;-67
2022/07/20 10:49:13;;;;;;;0.70;0.70;;;;;;;20.26;49.90;98075.22;5028870;28;20128;-66
2022/07/20 10:51:39;;;;;;;0.73;0.73;;;;;;;20.26;50.29;98084.06;5027468;28;20045;-66
2022/07/20 10:54:30;;;;;;;8.50;1.48;;;;;;;20.36;49.92;98080.19;5027699;28;20038;-67
2022/07/20 10:56:57;;;;;;;4.13;0.90;;;;;;;20.17;49.72;98080.69;5032296;28;20132;-66
2022/07/20 10:59:22;;;;;;;1.55;0.85;;;;;;;20.00;50.67;98072.78;5047928;28;20071;-66
2022/07/20 11:01:48;;;;;;;0.70;0.70;;;;;;;19.86;49.97;98083.84;5044808;28;20526;-63
2022/07/20 11:04:15;;;;;;;2.15;0.80;;;;;;;19.63;52.01;98078.78;5027447;28;20046;-66
2022/07/20 11:06:41;;;;;;;2.38;1.00;;;;;;;19.61;52.11;98081.00;5032225;28;20034;-66
2022/07/20 11:09:07;;;;;;;2.35;0.93;;;;;;;19.64;52.58;98077.66;5026515;28;20045;-66
2022/07/20 11:11:34;;;;;;;1.17;1.00;;;;;;;19.63;52.32;98078.00;5027894;28;20119;-67
2022/07/20 11:14:02;;;;;;;1.10;1.00;;;;;;;19.49;52.21;98079.03;5026564;28;20116;-65
2022/07/20 11:16:28;;;;;;;1.88;0.73;;;;;;;19.45;51.58;98082.72;5029049;28;20041;-66
2022/07/20 11:18:55;;;;;;;0.82;0.80;;;;;;;19.39;52.21;98084.81;5042957;28;20536;-66
2022/07/20 11:21:48;;;;;;;1.13;0.70;;;;;;;19.33;51.30;98086.13;5051054;28;20048;-66
2022/07/20 11:24:23;;;;;;;2.25;0.90;;;;;;;19.28;52.59;98095.16;5025719;28;20080;-66
2022/07/20 11:26:49;;;;;;;2.45;1.00;;;;;;;19.27;53.05;98087.44;5051317;28;20047;-65
2022/07/20 11:29:16;;;;;;;1.02;0.98;;;;;;;19.28;53.23;98087.09;5042002;28;20573;-65
2022/07/20 11:31:42;;;;;;;1.80;0.85;;;;;;;19.29;53.10;98079.81;5033619;28;20048;-65
2022/07/20 11:34:08;;;;;;;0.88;0.88;;;;;;;19.39;52.24;98092.09;5033494;28;20458;-67
2022/07/20 11:36:37;;;;;;;0.90;0.90;;;;;;;19.30;52.17;98094.84;5047659;28;20067;-67
2022/07/20 11:39:14;;;;;;;1.17;1.00;;;;;;;19.22;52.94;98093.00;5050527;28;20043;-65
2022/07/20 11:41:54;;;;;;;1.10;0.90;;;;;;;19.21;53.78;98107.53;5017738;28;20041;-67